createdAt,value
2019-03-27T00:00:55.234Z,0
2019-03-27T00:01:55.228Z,0
2019-03-27T00:02:55.220Z,0
2019-03-27T00:03:55.226Z,0
2019-03-27T00:04:55.197Z,0
2019-03-27T00:05:55.201Z,0
2019-03-27T00:06:55.189Z,0
2019-03-27T00:07:55.183Z,0
2019-03-27T00:08:55.174Z,0
2019-03-27T00:09:55.158Z,0
2019-03-27T00:10:55.155Z,0
2019-03-27T00:11:55.235Z,0
2019-03-27T00:12:55.178Z,0
2019-03-27T00:13:55.136Z,0
2019-03-27T00:14:55.273Z,0
2019-03-27T00:15:55.118Z,0
2019-03-27T00:16:55.112Z,0
2019-03-27T00:17:55.088Z,0
2019-03-27T00:18:55.093Z,0
2019-03-27T00:19:55.160Z,0
2019-03-27T00:20:55.077Z,0
2019-03-27T00:21:55.132Z,0
2019-03-27T00:22:55.067Z,0
2019-03-27T00:23:55.048Z,0
2019-03-27T00:24:55.034Z,0
2019-03-27T00:25:54.778Z,0
2019-03-27T00:26:55.014Z,0
2019-03-27T00:27:55.010Z,0
2019-03-27T00:28:54.998Z,0
2019-03-27T00:29:54.985Z,0
2019-03-27T00:30:55.078Z,0
2019-03-27T00:31:54.972Z,0
2019-03-27T00:32:55.079Z,0
2019-03-27T00:33:54.715Z,0
2019-03-27T00:34:55.121Z,0
2019-03-27T00:35:54.940Z,0
2019-03-27T00:36:54.928Z,0
2019-03-27T00:37:54.928Z,0
2019-03-27T00:38:54.903Z,0
2019-03-27T00:39:54.915Z,0
2019-03-27T00:40:54.919Z,0
2019-03-27T00:41:54.889Z,0
2019-03-27T00:42:54.640Z,0
2019-03-27T00:43:54.611Z,0
2019-03-27T00:44:54.874Z,0
2019-03-27T00:45:54.874Z,0
2019-03-27T00:46:54.882Z,0
2019-03-27T00:47:54.876Z,0
2019-03-27T00:48:54.835Z,0
2019-03-27T00:49:54.849Z,0
2019-03-27T00:50:54.575Z,0
2019-03-27T00:51:54.835Z,0
2019-03-27T00:52:54.841Z,0
2019-03-27T00:53:54.794Z,0
2019-03-27T00:54:54.770Z,0
2019-03-27T00:55:54.767Z,0
2019-03-27T00:56:54.835Z,0
2019-03-27T00:57:54.773Z,0
2019-03-27T00:58:54.738Z,0
2019-03-27T00:59:54.733Z,0
2019-03-27T01:00:54.774Z,0
2019-03-27T01:01:54.819Z,0
2019-03-27T01:02:54.778Z,0
2019-03-27T01:03:54.764Z,0
2019-03-27T01:04:54.704Z,0
2019-03-27T01:05:54.423Z,0
2019-03-27T01:06:57.960Z,0
2019-03-27T01:07:54.769Z,0
2019-03-27T01:08:54.415Z,0
2019-03-27T01:09:54.695Z,0
2019-03-27T01:10:54.646Z,0
2019-03-27T01:11:54.704Z,0
2019-03-27T01:12:54.634Z,0
2019-03-27T01:13:54.615Z,0
2019-03-27T01:14:54.604Z,0
2019-03-27T01:15:54.593Z,0
2019-03-27T01:16:54.588Z,0
2019-03-27T01:17:54.746Z,0
2019-03-27T01:18:54.568Z,0
2019-03-27T01:19:54.568Z,0
2019-03-27T01:20:54.562Z,0
2019-03-27T01:21:54.552Z,0
2019-03-27T01:22:54.289Z,0
2019-03-27T01:23:54.279Z,0
2019-03-27T01:24:54.524Z,0
2019-03-27T01:25:54.537Z,0
2019-03-27T01:26:54.501Z,0
2019-03-27T01:27:54.490Z,0
2019-03-27T01:28:54.489Z,0
2019-03-27T01:29:54.476Z,0
2019-03-27T01:30:54.466Z,0
2019-03-27T01:31:54.453Z,0
2019-03-27T01:32:54.506Z,0
2019-03-27T01:33:54.443Z,0
2019-03-27T01:34:54.188Z,0
2019-03-27T01:35:54.422Z,0
2019-03-27T01:36:54.419Z,0
2019-03-27T01:37:54.403Z,0
2019-03-27T01:38:54.477Z,0
2019-03-27T01:39:54.203Z,0
2019-03-27T01:40:54.374Z,0
2019-03-27T01:41:54.368Z,0
2019-03-27T01:42:54.372Z,0
2019-03-27T01:43:54.354Z,0
2019-03-27T01:44:54.341Z,0
2019-03-27T01:46:02.547Z,0
2019-03-27T01:46:54.328Z,0
2019-03-27T01:47:54.316Z,0
2019-03-27T01:48:54.203Z,0
2019-03-27T01:49:54.298Z,0
2019-03-27T01:50:54.287Z,0
2019-03-27T01:51:54.278Z,0
2019-03-27T01:52:54.284Z,0
2019-03-27T01:53:54.273Z,0
2019-03-27T01:54:54.256Z,0
2019-03-27T01:55:54.255Z,0
2019-03-27T01:56:54.297Z,0
2019-03-27T01:57:54.231Z,0
2019-03-27T01:58:53.717Z,0
2019-03-27T01:59:54.215Z,0
2019-03-27T02:00:54.199Z,0
2019-03-27T02:01:54.195Z,0
2019-03-27T02:02:54.194Z,0
2019-03-27T02:03:55.077Z,0
2019-03-27T02:04:54.177Z,0
2019-03-27T02:05:54.249Z,0
2019-03-27T02:06:54.153Z,0
2019-03-27T02:07:54.158Z,0
2019-03-27T02:08:53.876Z,0
2019-03-27T02:09:54.124Z,0
2019-03-27T02:10:54.112Z,0
2019-03-27T02:11:54.123Z,0
2019-03-27T02:12:54.094Z,0
2019-03-27T02:13:54.100Z,0
2019-03-27T02:14:54.080Z,0
2019-03-27T02:16:06.082Z,0
2019-03-27T02:16:54.067Z,0
2019-03-27T02:17:54.064Z,0
2019-03-27T02:18:54.050Z,0
2019-03-27T02:19:54.184Z,0
2019-03-27T02:20:54.039Z,0
2019-03-27T02:21:54.046Z,0
2019-03-27T02:22:54.012Z,0
2019-03-27T02:23:54.005Z,0
2019-03-27T02:24:53.995Z,0
2019-03-27T02:25:53.983Z,0
2019-03-27T02:26:53.973Z,0
2019-03-27T02:27:54.055Z,0
2019-03-27T02:28:54.045Z,0
2019-03-27T02:29:53.953Z,0
2019-03-27T02:30:53.965Z,0
2019-03-27T02:31:53.970Z,0
2019-03-27T02:32:53.697Z,0
2019-03-27T02:33:53.932Z,0
2019-03-27T02:34:53.927Z,0
2019-03-27T02:35:53.802Z,0
2019-03-27T02:36:53.922Z,0
2019-03-27T02:37:53.666Z,0
2019-03-27T02:38:53.906Z,0
2019-03-27T02:39:53.908Z,0
2019-03-27T02:40:53.621Z,0
2019-03-27T02:41:53.847Z,0
2019-03-27T02:42:53.850Z,0
2019-03-27T02:43:53.905Z,0
2019-03-27T02:44:53.845Z,0
2019-03-27T02:45:53.848Z,0
2019-03-27T02:46:53.573Z,0
2019-03-27T02:47:53.801Z,0
2019-03-27T02:48:53.826Z,0
2019-03-27T02:49:53.785Z,0
2019-03-27T02:50:55.024Z,0
2019-03-27T02:51:53.785Z,0
2019-03-27T02:52:53.793Z,0
2019-03-27T02:53:53.802Z,0
2019-03-27T02:54:53.530Z,0
2019-03-27T02:55:53.484Z,0
2019-03-27T02:56:53.721Z,0
2019-03-27T02:57:53.754Z,0
2019-03-27T02:58:53.488Z,0
2019-03-27T02:59:53.751Z,0
2019-03-27T03:00:53.732Z,0
2019-03-27T03:01:57.522Z,0
2019-03-27T03:02:53.705Z,0
2019-03-27T03:03:53.669Z,0
2019-03-27T03:04:53.414Z,0
2019-03-27T03:05:53.644Z,0
2019-03-27T03:06:53.662Z,0
2019-03-27T03:07:53.637Z,0
2019-03-27T03:08:53.642Z,0
2019-03-27T03:09:53.619Z,0
2019-03-27T03:10:55.558Z,0
2019-03-27T03:11:53.629Z,0
2019-03-27T03:12:53.596Z,0
2019-03-27T03:13:53.587Z,0
2019-03-27T03:14:53.578Z,0
2019-03-27T03:15:53.571Z,0
2019-03-27T03:16:53.340Z,0
2019-03-27T03:17:53.535Z,0
2019-03-27T03:18:53.654Z,0
2019-03-27T03:19:53.274Z,0
2019-03-27T03:20:53.519Z,0
2019-03-27T03:21:53.670Z,0
2019-03-27T03:22:53.482Z,0
2019-03-27T03:23:53.473Z,0
2019-03-27T03:24:53.496Z,0
2019-03-27T03:25:53.596Z,0
2019-03-27T03:26:57.929Z,0
2019-03-27T03:27:53.600Z,0
2019-03-27T03:28:53.460Z,0
2019-03-27T03:29:53.427Z,0
2019-03-27T03:30:53.557Z,0
2019-03-27T03:31:53.049Z,0
2019-03-27T03:32:53.516Z,0
2019-03-27T03:33:53.599Z,0
2019-03-27T03:34:53.525Z,0
2019-03-27T03:35:53.398Z,0
2019-03-27T03:36:53.366Z,0
2019-03-27T03:37:53.401Z,0
2019-03-27T03:38:53.377Z,0
2019-03-27T03:39:53.355Z,0
2019-03-27T03:40:53.123Z,0
2019-03-27T03:41:53.329Z,0
2019-03-27T03:42:53.333Z,0
2019-03-27T03:43:53.313Z,0
2019-03-27T03:44:53.349Z,0
2019-03-27T03:45:53.288Z,0
2019-03-27T03:47:08.415Z,0
2019-03-27T03:47:53.268Z,0
2019-03-27T03:48:53.296Z,0
2019-03-27T03:49:53.305Z,0
2019-03-27T03:50:53.481Z,0
2019-03-27T03:51:53.250Z,0
2019-03-27T03:52:55.647Z,0
2019-03-27T03:53:53.220Z,0
2019-03-27T03:54:53.215Z,0
2019-03-27T03:55:53.235Z,0
2019-03-27T03:56:53.188Z,0
2019-03-27T03:57:52.936Z,0
2019-03-27T03:58:53.170Z,0
2019-03-27T03:59:53.201Z,0
2019-03-27T04:00:52.941Z,0
2019-03-27T04:01:53.182Z,0
2019-03-27T04:02:53.132Z,0
2019-03-27T04:03:52.889Z,0
2019-03-27T04:04:53.141Z,0
2019-03-27T04:05:53.128Z,0
2019-03-27T04:06:52.872Z,0
2019-03-27T04:07:53.087Z,0
2019-03-27T04:08:53.382Z,0
2019-03-27T04:09:53.079Z,0
2019-03-27T04:10:53.070Z,0
2019-03-27T04:11:53.073Z,0
2019-03-27T04:12:53.071Z,0
2019-03-27T04:13:53.037Z,0
2019-03-27T04:14:53.069Z,0
2019-03-27T04:15:53.037Z,0
2019-03-27T04:16:53.037Z,0
2019-03-27T04:17:53.015Z,0
2019-03-27T04:18:53.041Z,0
2019-03-27T04:19:52.983Z,0
2019-03-27T04:20:52.991Z,0
2019-03-27T04:21:52.705Z,0
2019-03-27T04:22:53.000Z,0
2019-03-27T04:23:52.949Z,0
2019-03-27T04:24:52.758Z,0
2019-03-27T04:26:18.295Z,0
2019-03-27T04:26:52.945Z,0
2019-03-27T04:27:52.914Z,0
2019-03-27T04:28:53.018Z,0
2019-03-27T04:29:52.894Z,0
2019-03-27T04:30:52.891Z,0
2019-03-27T04:31:52.886Z,0
2019-03-27T04:32:52.904Z,0
2019-03-27T04:33:52.862Z,0
2019-03-27T04:34:56.615Z,0
2019-03-27T04:35:52.860Z,0
2019-03-27T04:36:52.837Z,0
2019-03-27T04:37:52.825Z,0
2019-03-27T04:38:52.819Z,0
2019-03-27T04:39:52.812Z,0
2019-03-27T04:40:52.796Z,0
2019-03-27T04:41:52.838Z,0
2019-03-27T04:42:52.768Z,0
2019-03-27T04:43:52.802Z,0
2019-03-27T04:44:52.759Z,0
2019-03-27T04:45:52.530Z,0
2019-03-27T04:46:52.744Z,0
2019-03-27T04:47:52.490Z,0
2019-03-27T04:48:52.742Z,0
2019-03-27T04:49:52.706Z,0
2019-03-27T04:50:52.709Z,0
2019-03-27T04:51:52.710Z,0
2019-03-27T04:52:52.694Z,0
2019-03-27T04:53:52.747Z,0
2019-03-27T04:54:52.665Z,0
2019-03-27T04:55:52.712Z,0
2019-03-27T04:56:52.661Z,0
2019-03-27T04:57:52.631Z,0
2019-03-27T04:58:52.645Z,0
2019-03-27T04:59:52.613Z,0
2019-03-27T05:00:52.613Z,0
2019-03-27T05:01:52.352Z,0
2019-03-27T05:02:52.597Z,0
2019-03-27T05:03:52.592Z,0
2019-03-27T05:04:52.583Z,0
2019-03-27T05:05:52.568Z,0
2019-03-27T05:06:52.320Z,0
2019-03-27T05:07:52.304Z,0
2019-03-27T05:08:52.533Z,0
2019-03-27T05:09:52.525Z,0
2019-03-27T05:10:52.535Z,0
2019-03-27T05:11:52.525Z,0
2019-03-27T05:12:52.508Z,0
2019-03-27T05:13:52.237Z,0
2019-03-27T05:14:52.488Z,0
2019-03-27T05:15:52.478Z,0
2019-03-27T05:16:52.467Z,0
2019-03-27T05:17:56.032Z,0
2019-03-27T05:18:52.451Z,0
2019-03-27T05:19:52.441Z,0
2019-03-27T05:20:52.434Z,0
2019-03-27T05:21:52.417Z,0
2019-03-27T05:22:52.408Z,0
2019-03-27T05:23:52.397Z,0
2019-03-27T05:24:52.473Z,0
2019-03-27T05:25:52.378Z,0
2019-03-27T05:26:52.575Z,0
2019-03-27T05:27:52.372Z,0
2019-03-27T05:28:52.372Z,0
2019-03-27T05:29:52.374Z,0
2019-03-27T05:30:52.335Z,0
2019-03-27T05:31:52.333Z,0
2019-03-27T05:32:52.323Z,0
2019-03-27T05:33:52.317Z,0
2019-03-27T05:34:52.303Z,5
2019-03-27T05:35:52.298Z,5
2019-03-27T05:36:52.286Z,5
2019-03-27T05:37:52.274Z,5
2019-03-27T05:38:52.269Z,5
2019-03-27T05:39:52.252Z,5
2019-03-27T05:40:52.243Z,5
2019-03-27T05:41:52.235Z,5
2019-03-27T05:43:05.455Z,5
2019-03-27T05:43:52.230Z,5
2019-03-27T05:44:52.207Z,5
2019-03-27T05:45:52.197Z,5
2019-03-27T05:46:51.947Z,5
2019-03-27T05:48:06.078Z,5
2019-03-27T05:48:52.172Z,5
2019-03-27T05:49:52.161Z,5
2019-03-27T05:50:52.246Z,5
2019-03-27T05:51:52.143Z,5
2019-03-27T05:52:52.136Z,5
2019-03-27T05:53:52.123Z,5
2019-03-27T05:54:52.115Z,5
2019-03-27T05:55:52.206Z,10
2019-03-27T05:56:52.105Z,10
2019-03-27T05:57:51.892Z,10
2019-03-27T05:58:52.076Z,10
2019-03-27T05:59:52.066Z,10
2019-03-27T06:00:52.064Z,10
2019-03-27T06:01:52.057Z,10
2019-03-27T06:02:52.039Z,10
2019-03-27T06:03:51.781Z,10
2019-03-27T06:04:52.017Z,10
2019-03-27T06:05:52.017Z,10
2019-03-27T06:06:51.998Z,10
2019-03-27T06:07:51.990Z,10
2019-03-27T06:08:51.976Z,10
2019-03-27T06:09:51.984Z,10
2019-03-27T06:10:52.001Z,10
2019-03-27T06:11:51.983Z,15
2019-03-27T06:12:51.690Z,15
2019-03-27T06:13:52.083Z,10
2019-03-27T06:14:51.926Z,10
2019-03-27T06:15:54.748Z,10
2019-03-27T06:16:51.912Z,15
2019-03-27T06:17:51.900Z,15
2019-03-27T06:18:51.639Z,15
2019-03-27T06:19:51.885Z,15
2019-03-27T06:20:52.002Z,15
2019-03-27T06:21:51.865Z,15
2019-03-27T06:22:51.853Z,10
2019-03-27T06:23:51.855Z,15
2019-03-27T06:24:51.834Z,15
2019-03-27T06:25:51.835Z,15
2019-03-27T06:26:51.816Z,15
2019-03-27T06:27:51.818Z,15
2019-03-27T06:28:53.049Z,15
2019-03-27T06:29:51.797Z,15
2019-03-27T06:30:51.784Z,15
2019-03-27T06:31:51.807Z,15
2019-03-27T06:32:51.763Z,15
2019-03-27T06:33:51.748Z,15
2019-03-27T06:34:51.486Z,15
2019-03-27T06:35:51.738Z,15
2019-03-27T06:36:51.735Z,15
2019-03-27T06:37:51.716Z,15
2019-03-27T06:38:51.707Z,15
2019-03-27T06:39:51.473Z,15
2019-03-27T06:40:51.441Z,15
2019-03-27T06:41:51.709Z,15
2019-03-27T06:42:51.678Z,15
2019-03-27T06:43:51.411Z,15
2019-03-27T06:44:51.952Z,15
2019-03-27T06:45:51.645Z,15
2019-03-27T06:46:51.663Z,15
2019-03-27T06:47:51.626Z,15
2019-03-27T06:48:51.669Z,20
2019-03-27T06:49:51.616Z,20
2019-03-27T06:50:51.612Z,20
2019-03-27T06:51:51.598Z,20
2019-03-27T06:52:51.602Z,20
2019-03-27T06:53:51.591Z,20
2019-03-27T06:54:51.584Z,20
2019-03-27T06:55:51.603Z,20
2019-03-27T06:56:51.588Z,20
2019-03-27T06:57:51.543Z,20
2019-03-27T06:59:03.879Z,20
2019-03-27T06:59:51.534Z,20
2019-03-27T07:00:51.673Z,20
2019-03-27T07:01:51.582Z,20
2019-03-27T07:02:51.492Z,20
2019-03-27T07:03:51.567Z,20
2019-03-27T07:04:51.482Z,20
2019-03-27T07:05:51.314Z,20
2019-03-27T07:06:51.459Z,20
2019-03-27T07:07:51.456Z,20
2019-03-27T07:08:51.443Z,20
2019-03-27T07:09:52.233Z,20
2019-03-27T07:10:51.423Z,20
2019-03-27T07:11:51.415Z,20
2019-03-27T07:12:51.187Z,20
2019-03-27T07:13:51.399Z,20
2019-03-27T07:14:51.403Z,20
2019-03-27T07:15:51.383Z,20
2019-03-27T07:16:51.362Z,20
2019-03-27T07:17:51.355Z,20
2019-03-27T07:18:51.345Z,20
2019-03-27T07:19:51.338Z,20
2019-03-27T07:20:51.077Z,20
2019-03-27T07:21:51.329Z,20
2019-03-27T07:22:51.070Z,20
2019-03-27T07:23:51.305Z,20
2019-03-27T07:24:51.049Z,20
2019-03-27T07:25:51.045Z,20
2019-03-27T07:26:51.035Z,20
2019-03-27T07:27:51.273Z,20
2019-03-27T07:28:51.266Z,20
2019-03-27T07:29:51.255Z,20
2019-03-27T07:30:51.253Z,20
2019-03-27T07:31:51.424Z,20
2019-03-27T07:32:51.221Z,20
2019-03-27T07:33:51.216Z,20
2019-03-27T07:34:51.204Z,20
2019-03-27T07:35:51.201Z,20
2019-03-27T07:36:51.185Z,20
2019-03-27T07:37:50.927Z,20
2019-03-27T07:38:51.180Z,25
2019-03-27T07:39:51.157Z,25
2019-03-27T07:40:51.156Z,20
2019-03-27T07:41:51.139Z,25
2019-03-27T07:42:51.134Z,25
2019-03-27T07:43:51.594Z,25
2019-03-27T07:44:50.873Z,25
2019-03-27T07:45:51.107Z,25
2019-03-27T07:46:51.149Z,25
2019-03-27T07:47:52.684Z,25
2019-03-27T07:49:03.441Z,20
2019-03-27T07:49:51.071Z,25
2019-03-27T07:50:51.079Z,25
2019-03-27T07:51:51.055Z,25
2019-03-27T07:52:51.048Z,25
2019-03-27T07:53:51.049Z,25
2019-03-27T07:54:51.036Z,25
2019-03-27T07:55:51.018Z,25
2019-03-27T07:56:51.011Z,25
2019-03-27T07:57:50.997Z,25
2019-03-27T07:58:51.010Z,25
2019-03-27T07:59:51.001Z,25
2019-03-27T08:00:51.063Z,25
2019-03-27T08:01:51.061Z,20
2019-03-27T08:02:50.967Z,20
2019-03-27T08:03:51.041Z,20
2019-03-27T08:04:50.953Z,20
2019-03-27T08:05:50.947Z,20
2019-03-27T08:06:50.922Z,20
2019-03-27T08:07:50.921Z,20
2019-03-27T08:08:50.991Z,20
2019-03-27T08:09:50.911Z,20
2019-03-27T08:10:50.652Z,20
2019-03-27T08:11:50.818Z,20
2019-03-27T08:12:50.972Z,20
2019-03-27T08:13:50.636Z,20
2019-03-27T08:14:50.864Z,20
2019-03-27T08:15:50.859Z,20
2019-03-27T08:16:50.862Z,20
2019-03-27T08:17:50.828Z,20
2019-03-27T08:18:50.867Z,20
2019-03-27T08:19:50.821Z,20
2019-03-27T08:20:50.810Z,20
2019-03-27T08:21:50.898Z,20
2019-03-27T08:22:50.798Z,25
2019-03-27T08:23:50.534Z,25
2019-03-27T08:24:50.784Z,25
2019-03-27T08:25:50.756Z,20
2019-03-27T08:26:50.840Z,20
2019-03-27T08:27:50.742Z,20
2019-03-27T08:28:50.834Z,25
2019-03-27T08:29:50.722Z,25
2019-03-27T08:30:50.764Z,25
2019-03-27T08:31:50.707Z,25
2019-03-27T08:32:50.703Z,25
2019-03-27T08:33:50.799Z,25
2019-03-27T08:34:50.703Z,25
2019-03-27T08:35:50.429Z,25
2019-03-27T08:36:50.691Z,25
2019-03-27T08:37:50.660Z,25
2019-03-27T08:38:50.692Z,25
2019-03-27T08:39:50.646Z,25
2019-03-27T08:40:50.633Z,25
2019-03-27T08:41:50.624Z,25
2019-03-27T08:42:50.613Z,25
2019-03-27T08:43:50.606Z,25
2019-03-27T08:44:50.603Z,25
2019-03-27T08:45:50.586Z,25
2019-03-27T08:46:50.591Z,25
2019-03-27T08:47:50.580Z,25
2019-03-27T08:48:50.565Z,25
2019-03-27T08:49:50.556Z,25
2019-03-27T08:50:50.585Z,25
2019-03-27T08:51:50.565Z,25
2019-03-27T08:52:50.279Z,25
2019-03-27T08:53:50.272Z,20
2019-03-27T08:54:50.526Z,25
2019-03-27T08:55:50.512Z,25
2019-03-27T08:56:50.497Z,25
2019-03-27T08:57:50.493Z,25
2019-03-27T08:58:50.482Z,25
2019-03-27T08:59:50.474Z,25
2019-03-27T09:00:50.475Z,25
2019-03-27T09:01:50.504Z,25
2019-03-27T09:02:50.459Z,25
2019-03-27T09:03:50.446Z,25
2019-03-27T09:04:50.582Z,25
2019-03-27T09:05:50.418Z,25
2019-03-27T09:06:50.426Z,25
2019-03-27T09:07:50.488Z,25
2019-03-27T09:08:50.397Z,25
2019-03-27T09:09:50.385Z,25
2019-03-27T09:10:50.134Z,25
2019-03-27T09:11:50.378Z,25
2019-03-27T09:12:50.361Z,25
2019-03-27T09:13:50.104Z,25
2019-03-27T09:14:50.348Z,25
2019-03-27T09:15:50.337Z,25
2019-03-27T09:16:50.340Z,25
2019-03-27T09:17:50.321Z,30
2019-03-27T09:18:50.342Z,25
2019-03-27T09:19:50.305Z,30
2019-03-27T09:20:50.456Z,30
2019-03-27T09:21:50.297Z,30
2019-03-27T09:22:50.306Z,35
2019-03-27T09:23:53.081Z,30
2019-03-27T09:24:50.270Z,35
2019-03-27T09:25:50.254Z,35
2019-03-27T09:26:50.250Z,30
2019-03-27T09:27:50.235Z,30
2019-03-27T09:28:50.233Z,30
2019-03-27T09:29:50.533Z,30
2019-03-27T09:30:50.229Z,30
2019-03-27T09:31:54.829Z,30
2019-03-27T09:32:50.197Z,30
2019-03-27T09:33:50.271Z,25
2019-03-27T09:34:50.176Z,30
2019-03-27T09:35:50.218Z,30
2019-03-27T09:36:50.168Z,30
2019-03-27T09:37:50.160Z,30
2019-03-27T09:38:50.158Z,30
2019-03-27T09:39:50.141Z,30
2019-03-27T09:40:50.143Z,30
2019-03-27T09:41:50.124Z,30
2019-03-27T09:42:50.131Z,30
2019-03-27T09:43:50.132Z,30
2019-03-27T09:44:50.098Z,30
2019-03-27T09:45:50.086Z,30
2019-03-27T09:46:50.165Z,30
2019-03-27T09:47:50.069Z,30
2019-03-27T09:48:50.063Z,30
2019-03-27T09:49:58.985Z,30
2019-03-27T09:50:50.037Z,30
2019-03-27T09:51:49.883Z,20
2019-03-27T09:52:49.876Z,25
2019-03-27T09:53:52.875Z,25
2019-03-27T09:54:50.014Z,30
2019-03-27T09:55:50.005Z,30
2019-03-27T09:56:50.014Z,30
2019-03-27T09:57:50.070Z,30
2019-03-27T09:58:49.980Z,30
2019-03-27T09:59:49.720Z,30
2019-03-27T10:00:50.010Z,30
2019-03-27T10:01:49.951Z,40
2019-03-27T10:02:49.698Z,45
2019-03-27T10:03:49.934Z,40
2019-03-27T10:04:49.750Z,40
2019-03-27T10:05:49.914Z,30
2019-03-27T10:06:49.907Z,35
2019-03-27T10:07:50.056Z,30
2019-03-27T10:08:49.646Z,35
2019-03-27T10:09:52.823Z,35
2019-03-27T10:10:49.889Z,35
2019-03-27T10:11:49.944Z,35
2019-03-27T10:12:49.860Z,35
2019-03-27T10:13:49.854Z,35
2019-03-27T10:14:52.454Z,40
2019-03-27T10:15:49.841Z,40
2019-03-27T10:16:49.832Z,40
2019-03-27T10:17:49.838Z,45
2019-03-27T10:18:52.338Z,50
2019-03-27T10:20:02.711Z,50
2019-03-27T10:20:49.803Z,50
2019-03-27T10:21:49.796Z,40
2019-03-27T10:22:49.783Z,40
2019-03-27T10:23:49.530Z,40
2019-03-27T10:24:49.771Z,40
2019-03-27T10:25:49.765Z,30
2019-03-27T10:26:52.376Z,25
2019-03-27T10:27:49.486Z,30
2019-03-27T10:28:49.763Z,35
2019-03-27T10:29:49.727Z,35
2019-03-27T10:30:49.727Z,35
2019-03-27T10:31:49.713Z,35
2019-03-27T10:32:49.709Z,35
2019-03-27T10:33:49.481Z,40
2019-03-27T10:34:49.695Z,30
2019-03-27T10:35:49.680Z,30
2019-03-27T10:36:49.677Z,35
2019-03-27T10:37:49.673Z,40
2019-03-27T10:38:51.426Z,35
2019-03-27T10:39:49.652Z,40
2019-03-27T10:40:49.643Z,35
2019-03-27T10:41:49.627Z,35
2019-03-27T10:42:49.622Z,35
2019-03-27T10:43:49.613Z,35
2019-03-27T10:44:49.607Z,40
2019-03-27T10:45:49.609Z,45
2019-03-27T10:46:49.640Z,45
2019-03-27T10:47:49.575Z,45
2019-03-27T10:49:02.017Z,45
2019-03-27T10:49:49.569Z,45
2019-03-27T10:50:49.556Z,35
2019-03-27T10:51:49.553Z,35
2019-03-27T10:52:49.051Z,35
2019-03-27T10:53:49.545Z,40
2019-03-27T10:54:49.673Z,40
2019-03-27T10:55:49.518Z,40
2019-03-27T10:56:49.591Z,35
2019-03-27T10:57:49.512Z,40
2019-03-27T10:58:49.568Z,45
2019-03-27T10:59:49.485Z,45
2019-03-27T11:00:49.487Z,40
2019-03-27T11:01:49.467Z,40
2019-03-27T11:02:49.461Z,40
2019-03-27T11:03:49.446Z,40
2019-03-27T11:04:49.449Z,45
2019-03-27T11:05:49.446Z,45
2019-03-27T11:06:49.434Z,50
2019-03-27T11:07:48.933Z,50
2019-03-27T11:08:49.420Z,45
2019-03-27T11:09:49.558Z,50
2019-03-27T11:10:49.428Z,45
2019-03-27T11:11:49.400Z,45
2019-03-27T11:12:49.390Z,50
2019-03-27T11:13:49.439Z,55
2019-03-27T11:14:49.375Z,55
2019-03-27T11:15:49.362Z,50
2019-03-27T11:16:49.350Z,45
2019-03-27T11:17:49.415Z,45
2019-03-27T11:18:49.364Z,45
2019-03-27T11:19:49.319Z,45
2019-03-27T11:20:49.322Z,45
2019-03-27T11:21:49.307Z,50
2019-03-27T11:22:49.307Z,50
2019-03-27T11:23:49.294Z,50
2019-03-27T11:24:49.286Z,50
2019-03-27T11:25:49.644Z,50
2019-03-27T11:26:49.019Z,50
2019-03-27T11:27:49.256Z,45
2019-03-27T11:28:49.294Z,50
2019-03-27T11:29:49.240Z,45
2019-03-27T11:30:53.086Z,45
2019-03-27T11:31:49.319Z,45
2019-03-27T11:32:49.227Z,45
2019-03-27T11:33:49.218Z,45
2019-03-27T11:34:49.209Z,45
2019-03-27T11:35:51.687Z,45
2019-03-27T11:36:49.236Z,45
2019-03-27T11:37:49.248Z,50
2019-03-27T11:38:49.169Z,50
2019-03-27T11:39:49.166Z,45
2019-03-27T11:40:49.263Z,45
2019-03-27T11:41:49.145Z,45
2019-03-27T11:42:49.144Z,45
2019-03-27T11:44:01.978Z,45
2019-03-27T11:44:49.147Z,45
2019-03-27T11:45:51.222Z,45
2019-03-27T11:46:49.117Z,45
2019-03-27T11:47:49.125Z,50
2019-03-27T11:48:48.858Z,50
2019-03-27T11:49:49.112Z,50
2019-03-27T11:50:54.673Z,45
2019-03-27T11:51:49.067Z,45
2019-03-27T11:52:49.068Z,40
2019-03-27T11:53:48.830Z,40
2019-03-27T11:54:49.120Z,40
2019-03-27T11:55:49.041Z,40
2019-03-27T11:56:49.170Z,40
2019-03-27T11:57:49.023Z,40
2019-03-27T11:58:49.078Z,40
2019-03-27T12:00:02.755Z,45
2019-03-27T12:01:03.275Z,50
2019-03-27T12:01:53.142Z,50
2019-03-27T12:02:48.985Z,50
2019-03-27T12:03:48.975Z,50
2019-03-27T12:04:48.968Z,50
2019-03-27T12:05:50.514Z,50
2019-03-27T12:06:48.957Z,45
2019-03-27T12:07:49.055Z,45
2019-03-27T12:08:50.761Z,45
2019-03-27T12:09:48.945Z,50
2019-03-27T12:10:48.923Z,55
2019-03-27T12:11:49.021Z,55
2019-03-27T12:12:50.708Z,50
2019-03-27T12:13:48.907Z,45
2019-03-27T12:14:48.892Z,45
2019-03-27T12:15:48.902Z,35
2019-03-27T12:16:52.379Z,40
2019-03-27T12:17:48.874Z,40
2019-03-27T12:18:48.861Z,40
2019-03-27T12:19:48.878Z,40
2019-03-27T12:21:03.006Z,40
2019-03-27T12:21:48.837Z,40
2019-03-27T12:23:01.909Z,40
2019-03-27T12:23:48.824Z,40
2019-03-27T12:24:48.826Z,40
2019-03-27T12:25:48.806Z,40
2019-03-27T12:26:48.904Z,40
2019-03-27T12:27:48.801Z,40
2019-03-27T12:28:48.784Z,40
2019-03-27T12:29:48.784Z,45
2019-03-27T12:30:48.824Z,45
2019-03-27T12:31:48.763Z,45
2019-03-27T12:32:48.762Z,45
2019-03-27T12:33:48.764Z,45
2019-03-27T12:34:48.751Z,45
2019-03-27T12:35:48.725Z,50
2019-03-27T12:36:48.735Z,50
2019-03-27T12:37:48.712Z,50
2019-03-27T12:38:48.747Z,50
2019-03-27T12:39:50.404Z,55
2019-03-27T12:40:48.691Z,55
2019-03-27T12:41:48.681Z,50
2019-03-27T12:42:48.733Z,45
2019-03-27T12:43:48.681Z,50
2019-03-27T12:44:48.677Z,45
2019-03-27T12:45:48.656Z,45
2019-03-27T12:46:48.138Z,45
2019-03-27T12:47:48.384Z,45
2019-03-27T12:48:48.623Z,45
2019-03-27T12:49:51.674Z,50
2019-03-27T12:50:51.474Z,50
2019-03-27T12:51:48.599Z,50
2019-03-27T12:52:48.593Z,45
2019-03-27T12:53:48.590Z,45
2019-03-27T12:54:48.641Z,45
2019-03-27T12:55:48.590Z,45
2019-03-27T12:56:48.567Z,45
2019-03-27T12:57:48.608Z,45
2019-03-27T12:58:48.570Z,45
2019-03-27T12:59:48.563Z,45
2019-03-27T13:00:48.542Z,45
2019-03-27T13:01:48.518Z,45
2019-03-27T13:02:48.521Z,50
2019-03-27T13:03:51.558Z,55
2019-03-27T13:04:48.507Z,55
2019-03-27T13:05:48.491Z,55
2019-03-27T13:06:48.481Z,55
2019-03-27T13:07:59.520Z,55
2019-03-27T13:08:51.842Z,60
2019-03-27T13:09:48.459Z,60
2019-03-27T13:10:48.194Z,55
2019-03-27T13:11:48.438Z,55
2019-03-27T13:12:48.440Z,55
2019-03-27T13:13:48.418Z,50
2019-03-27T13:14:48.621Z,50
2019-03-27T13:15:48.419Z,50
2019-03-27T13:16:48.397Z,50
2019-03-27T13:17:48.395Z,55
2019-03-27T13:18:48.392Z,55
2019-03-27T13:19:48.381Z,50
2019-03-27T13:20:48.372Z,45
2019-03-27T13:21:48.360Z,45
2019-03-27T13:22:48.112Z,45
2019-03-27T13:23:48.344Z,50
2019-03-27T13:24:48.335Z,55
2019-03-27T13:25:48.332Z,60
2019-03-27T13:26:48.320Z,60
2019-03-27T13:27:50.021Z,60
2019-03-27T13:28:58.289Z,55
2019-03-27T13:29:48.342Z,55
2019-03-27T13:30:48.315Z,60
2019-03-27T13:31:48.292Z,60
2019-03-27T13:32:48.269Z,55
2019-03-27T13:33:50.279Z,50
2019-03-27T13:34:48.257Z,50
2019-03-27T13:35:48.257Z,50
2019-03-27T13:36:48.241Z,50
2019-03-27T13:37:48.237Z,50
2019-03-27T13:38:47.726Z,50
2019-03-27T13:39:48.222Z,50
2019-03-27T13:40:48.212Z,45
2019-03-27T13:41:48.203Z,45
2019-03-27T13:42:48.189Z,45
2019-03-27T13:43:48.187Z,45
2019-03-27T13:44:48.171Z,45
2019-03-27T13:45:47.917Z,45
2019-03-27T13:46:48.452Z,45
2019-03-27T13:47:48.180Z,45
2019-03-27T13:48:48.146Z,45
2019-03-27T13:49:47.903Z,45
2019-03-27T13:50:48.129Z,45
2019-03-27T13:51:50.573Z,45
2019-03-27T13:52:48.114Z,45
2019-03-27T13:53:48.102Z,45
2019-03-27T13:54:47.857Z,45
2019-03-27T13:55:47.859Z,45
2019-03-27T13:56:48.092Z,45
2019-03-27T13:57:48.084Z,45
2019-03-27T13:58:48.072Z,45
2019-03-27T13:59:48.057Z,50
2019-03-27T14:00:48.204Z,50
2019-03-27T14:01:47.852Z,50
2019-03-27T14:02:48.121Z,50
2019-03-27T14:03:48.108Z,50
2019-03-27T14:04:48.020Z,50
2019-03-27T14:05:48.025Z,50
2019-03-27T14:06:49.338Z,50
2019-03-27T14:07:48.009Z,50
2019-03-27T14:08:47.996Z,50
2019-03-27T14:09:47.988Z,50
2019-03-27T14:10:47.969Z,50
2019-03-27T14:11:47.761Z,50
2019-03-27T14:12:47.959Z,50
2019-03-27T14:13:50.430Z,50
2019-03-27T14:14:59.839Z,50
2019-03-27T14:15:47.967Z,50
2019-03-27T14:16:48.078Z,50
2019-03-27T14:17:47.929Z,50
2019-03-27T14:18:51.304Z,50
2019-03-27T14:19:47.908Z,50
2019-03-27T14:20:47.910Z,50
2019-03-27T14:22:00.941Z,55
2019-03-27T14:22:47.872Z,55
2019-03-27T14:23:47.872Z,55
2019-03-27T14:24:47.868Z,55
2019-03-27T14:25:47.605Z,55
2019-03-27T14:26:54.835Z,55
2019-03-27T14:27:50.285Z,55
2019-03-27T14:28:47.578Z,60